Hlavní strana
METAR-TAF:

METAR-TAF

Letiště :

Mobile, Alabama, Spojené státy americké

zeměpisná šířka: 30-36-50N, zeměpisná délka: 088-03-48W, výška: 7 m

Aktuální stav počasí

Zpráva byla vytvořena před 1 hodinou a 1 minutami, v 10:53 UTC
Bezvětří
Teplota 22°C
Vlhkost vzduchu 100%
Tlak 1020 hPa
Viditelnost: 16.1 km
Jasno

METAR: KBFM 241053Z 00000KT 10SM CLR 22/22 A3013 RMK AO2 SLP203 T02220217

Čas: 06:54 (11:54 UTC)

Předpověď počasí

Zpráva byla vytvořena před 24 minutami, v 11:30 UTC
Předpověď platná od 24 v 12 UTC do 25 v 12 UTC
Východoseverovýchodní vítr 4 kt
Viditelnost: 10 km
Jasno
Od 24 v 1400 UTC
Východní vítr 5 kt
Viditelnost: 10 km
Skoro jasno ve výšce 2500 ft
Od 24 v 1800 UTC
Jihojihovýchodní vítr 7 kt
Viditelnost: 10 km
Skoro jasno ve výšce 4000 ft
Od 25 v 0000 UTC
Jižní vítr 5 kt
Viditelnost: 10 km
Jasno

TAF: KBFM 241130Z 2412/2512 07004KT P6SM SKC FM241400 10005KT P6SM FEW025 FM241800 15007KT P6SM FEW040 FM250000 17005KT P6SM SKC

Stav a předpovědi počasí z více než 4 000 letišť (zprávy METAR a TAF).

Červené a žluté tečky na mapě představují dostupné meteorologické stanice.

Když kurzor umístíte na tečku, zobrazí se název stanice.

Pak kliknutím zobrazíte stav a předpověď počasí.

Chcete-li změnit mapu, kliknutím na zelené tlačítko se znaménkem +mapu přiblížíte, kliknutím na zelené tlačítko se znaménkem – mapu oddálíte a kliknutím na zelené šipky přejdete na sousední mapy.


METAR-TAF: